Time;durP1;ratioP1;P1;durP2;ratioP2;P2;SDS_P1;SDS_P2;PMS_P1;PMS_P2;Temp;Humidity;BMP_temperature;BMP_pressure;BME280_temperature;BME280_humidity;BME280_pressure;Samples;Min_cycle;Max_cycle;Signal;HPM_P1;HPM_P2
2022/08/16 00:01:21;;;;;;;10.20;9.30;;;;;;;23.63;69.63;99693.80;106396;1271;25398;-75
2022/08/16 00:03:52;;;;;;;11.70;10.30;;;;;;;23.62;69.80;99697.61;106060;1274;24249;-75
2022/08/16 00:06:20;;;;;;;11.50;10.20;;;;;;;23.59;69.53;99697.81;106011;1274;25369;-75
2022/08/16 00:08:48;;;;;;;11.70;10.50;;;;;;;23.55;69.68;99701.21;106054;1274;25311;-75
2022/08/16 00:11:15;;;;;;;11.00;9.90;;;;;;;23.52;69.85;99695.87;105941;1275;22529;-75
2022/08/16 00:13:47;;;;;;;10.80;9.80;;;;;;;23.49;69.77;99696.22;106150;1274;23764;-75
2022/08/16 00:16:23;;;;;;;10.80;9.90;;;;;;;23.49;70.07;99690.83;106063;1274;23201;-76
2022/08/16 00:19:15;;;;;;;13.70;9.80;;;;;;;23.49;70.00;99696.44;106023;1274;22551;-76
2022/08/16 00:21:43;;;;;;;10.90;9.80;;;;;;;23.48;69.97;99697.55;106178;1271;22757;-75
2022/08/16 00:24:11;;;;;;;11.70;9.90;;;;;;;23.47;70.12;99700.52;106447;1271;25236;-76
2022/08/16 00:26:40;;;;;;;12.30;10.20;;;;;;;23.42;70.06;99701.04;106358;1271;25310;-75
2022/08/16 00:29:15;;;;;;;10.40;9.40;;;;;;;23.43;70.17;99706.17;106474;1271;24577;-76
2022/08/16 00:31:45;;;;;;;11.00;9.90;;;;;;;23.44;70.30;99710.30;106478;1269;22571;-75
2022/08/16 00:34:28;;;;;;;10.80;9.80;;;;;;;23.42;70.41;99710.05;106409;1271;22551;-76
2022/08/16 00:37:15;;;;;;;11.00;9.90;;;;;;;23.41;70.24;99711.95;106340;1271;22521;-76
2022/08/16 00:39:47;;;;;;;12.20;11.00;;;;;;;23.39;70.42;99715.11;106430;1271;22556;-77
2022/08/16 00:42:28;;;;;;;11.10;9.90;;;;;;;23.36;70.55;99715.69;106327;1271;24356;-75
2022/08/16 00:45:26;;;;;;;10.60;9.50;;;;;;;23.35;70.60;99714.87;106377;1271;22554;-76
2022/08/16 00:47:54;;;;;;;11.00;9.70;;;;;;;23.33;70.62;99715.67;106347;1271;24320;-76
2022/08/16 00:50:24;;;;;;;10.80;9.70;;;;;;;23.33;70.60;99718.39;106446;1271;25308;-78
2022/08/16 00:53:05;;;;;;;10.60;9.60;;;;;;;23.30;70.85;99712.70;106393;1268;22685;-78
2022/08/16 00:55:36;;;;;;;12.50;11.30;;;;;;;23.26;70.96;99714.95;106366;1271;23841;-75
2022/08/16 00:58:05;;;;;;;13.50;10.80;;;;;;;23.20;71.06;99707.68;106363;1271;22613;-77
2022/08/16 01:00:39;;;;;;;11.30;10.00;;;;;;;23.19;71.07;99714.20;106121;1271;23387;-74
2022/08/16 01:03:10;;;;;;;11.80;10.60;;;;;;;23.17;71.02;99711.33;106377;1271;25236;-79
2022/08/16 01:05:39;;;;;;;12.10;10.90;;;;;;;23.15;71.36;99711.81;106458;1271;22835;-78
2022/08/16 01:08:08;;;;;;;11.90;10.80;;;;;;;23.13;71.28;99707.61;106522;1271;22765;-74
2022/08/16 01:10:55;;;;;;;11.50;10.50;;;;;;;23.12;71.63;99705.38;106574;1271;24072;-75
2022/08/16 01:13:29;;;;;;;11.20;10.20;;;;;;;23.10;71.49;99707.33;106227;1271;22519;-72
2022/08/16 01:16:11;;;;;;;10.80;9.70;;;;;;;23.06;71.74;99703.48;106457;1271;25235;-73
2022/08/16 01:18:51;;;;;;;11.80;10.20;;;;;;;23.09;71.65;99708.96;106364;1271;22534;-71
2022/08/16 01:21:58;;;;;;;11.70;10.60;;;;;;;23.09;71.90;99706.52;106345;1271;22545;-75
2022/08/16 01:24:50;;;;;;;10.60;9.60;;;;;;;23.09;71.88;99706.64;106344;1269;25968;-75
2022/08/16 01:27:28;;;;;;;11.90;10.20;;;;;;;23.07;71.73;99704.98;106305;1271;22563;-77
2022/08/16 01:30:03;;;;;;;12.20;11.10;;;;;;;23.05;71.79;99706.06;106446;1271;24478;-76
2022/08/16 01:32:46;;;;;;;12.20;9.70;;;;;;;23.02;71.86;99702.30;106462;1271;23015;-73
2022/08/16 01:35:42;;;;;;;10.80;9.80;;;;;;;23.01;71.96;99699.65;106380;1271;22544;-78
2022/08/16 01:38:35;;;;;;;10.60;9.70;;;;;;;23.00;72.05;99696.66;106227;1271;22688;-77
2022/08/16 01:41:06;;;;;;;11.30;10.30;;;;;;;23.00;72.05;99693.86;106276;1271;24199;-74
2022/08/16 01:43:35;;;;;;;11.30;9.90;;;;;;;22.99;72.12;99688.89;106451;1271;25210;-75
2022/08/16 01:46:21;;;;;;;11.30;10.30;;;;;;;22.97;71.93;99684.91;106501;1271;22538;-75
2022/08/16 01:49:10;;;;;;;10.80;9.90;;;;;;;22.96;71.99;99682.30;106531;1268;22548;-79
2022/08/16 01:51:40;;;;;;;12.00;10.40;;;;;;;22.95;72.11;99679.14;106448;1271;22536;-76
2022/08/16 01:54:10;;;;;;;10.80;9.60;;;;;;;22.95;72.15;99674.47;106344;1271;22476;-73
2022/08/16 01:56:49;;;;;;;11.70;10.60;;;;;;;22.96;72.19;99672.95;106968;1268;25219;-72
2022/08/16 01:59:16;;;;;;;10.80;9.90;;;;;;;22.94;72.14;99671.47;106598;1271;22696;-74
2022/08/16 02:01:46;;;;;;;10.40;9.40;;;;;;;22.91;72.14;99667.77;106659;1271;25930;-74
2022/08/16 02:04:21;;;;;;;11.50;10.30;;;;;;;22.90;72.56;99667.09;106537;1271;22584;-76
2022/08/16 02:07:09;;;;;;;11.10;9.80;;;;;;;22.90;72.21;99664.93;106399;1271;25404;-73
2022/08/16 02:09:38;;;;;;;10.60;9.70;;;;;;;22.88;72.18;99656.11;106394;1271;24256;-72
2022/08/16 02:12:08;;;;;;;11.40;10.20;;;;;;;22.90;72.27;99655.77;106403;1274;24836;-77
2022/08/16 02:14:56;;;;;;;12.40;11.30;;;;;;;22.88;72.27;99656.09;105987;1274;23793;-75
2022/08/16 02:17:25;;;;;;;11.00;10.00;;;;;;;22.83;72.09;99656.95;105793;1274;22508;-76
2022/08/16 02:19:56;;;;;;;10.60;9.50;;;;;;;22.82;72.28;99654.77;106298;1274;22720;-76
2022/08/16 02:22:27;;;;;;;11.00;9.80;;;;;;;22.78;72.58;99651.42;106103;1274;22552;-77
2022/08/16 02:25:12;;;;;;;11.10;9.90;;;;;;;22.78;72.65;99651.80;105685;1279;22701;-76
2022/08/16 02:27:43;;;;;;;11.00;9.90;;;;;;;22.76;72.62;99657.66;105678;1279;24282;-74
2022/08/16 02:30:23;;;;;;;12.10;10.10;;;;;;;22.74;72.65;99661.21;105681;1274;22540;-74
2022/08/16 02:33:11;;;;;;;11.10;10.00;;;;;;;22.72;72.97;99661.01;105809;1274;22550;-72
2022/08/16 02:35:41;;;;;;;11.20;10.10;;;;;;;22.72;72.85;99659.17;105856;1275;22686;-75
2022/08/16 02:38:28;;;;;;;11.00;9.50;;;;;;;22.74;72.88;99655.15;105822;1274;22528;-73
2022/08/16 02:41:01;;;;;;;19.10;10.80;;;;;;;22.73;72.66;99657.69;105917;1274;25328;-74
2022/08/16 02:43:36;;;;;;;12.70;10.20;;;;;;;22.69;72.95;99654.73;105496;1274;24038;-75
2022/08/16 02:46:06;;;;;;;10.90;9.90;;;;;;;22.68;72.94;99652.84;105867;1277;25235;-76
2022/08/16 02:48:35;;;;;;;12.70;10.00;;;;;;;22.63;73.07;99646.41;105905;1274;23951;-74
2022/08/16 02:51:06;;;;;;;17.00;9.80;;;;;;;22.63;73.05;99652.85;105844;1276;22662;-75
2022/08/16 02:53:42;;;;;;;11.50;10.10;;;;;;;22.61;73.10;99649.17;105582;1277;22620;-75
2022/08/16 02:56:13;;;;;;;10.70;9.80;;;;;;;22.61;73.05;99658.40;105891;1274;24303;-75
2022/08/16 02:58:46;;;;;;;11.30;10.20;;;;;;;22.60;73.20;99658.44;105799;1274;24424;-75
2022/08/16 03:01:16;;;;;;;14.60;11.10;;;;;;;22.57;73.15;99652.87;106067;1271;22522;-75
2022/08/16 03:04:04;;;;;;;11.20;9.60;;;;;;;22.56;73.33;99656.41;106351;1271;22538;-79
2022/08/16 03:06:52;;;;;;;10.70;9.70;;;;;;;22.57;73.51;99658.68;106450;1271;22547;-76
2022/08/16 03:09:40;;;;;;;11.40;9.90;;;;;;;22.56;73.49;99657.60;106382;1270;22533;-79
2022/08/16 03:12:10;;;;;;;13.80;10.50;;;;;;;22.56;73.37;99658.55;106392;1271;22538;-75
2022/08/16 03:14:42;;;;;;;13.40;9.90;;;;;;;22.57;73.65;99655.03;106368;1271;22528;-73
2022/08/16 03:17:09;;;;;;;15.90;11.00;;;;;;;22.57;73.44;99651.33;106381;1271;22541;-75
2022/08/16 03:19:37;;;;;;;17.20;11.10;;;;;;;22.54;73.48;99652.58;106329;1271;22576;-75
2022/08/16 03:22:24;;;;;;;11.20;9.90;;;;;;;22.52;73.64;99649.65;106442;1271;25474;-76
2022/08/16 03:25:05;;;;;;;10.40;9.40;;;;;;;22.54;73.80;99655.23;106477;1271;22549;-74
2022/08/16 03:27:37;;;;;;;13.60;10.60;;;;;;;22.55;73.67;99654.14;106376;1271;22527;-75
2022/08/16 03:30:24;;;;;;;14.20;11.40;;;;;;;22.51;73.80;99659.94;106278;1271;22522;-74
2022/08/16 03:32:55;;;;;;;12.50;11.30;;;;;;;22.49;73.77;99664.90;106145;1271;22776;-75
2022/08/16 03:35:28;;;;;;;10.90;9.90;;;;;;;22.48;73.95;99673.27;106197;1271;22603;-76
2022/08/16 03:38:12;;;;;;;11.10;10.00;;;;;;;22.45;74.01;99674.15;106251;1271;22508;-76
2022/08/16 03:41:02;;;;;;;12.40;10.90;;;;;;;22.46;73.95;99675.03;106108;1271;22574;-75
2022/08/16 03:43:31;;;;;;;11.40;10.00;;;;;;;22.45;73.93;99675.64;106271;1271;24393;-76
2022/08/16 03:46:21;;;;;;;11.10;10.00;;;;;;;22.41;73.83;99677.50;106163;1271;22557;-75
2022/08/16 03:49:10;;;;;;;11.40;10.20;;;;;;;22.37;73.90;99680.67;106170;1271;22708;-77
2022/08/16 03:51:40;;;;;;;12.00;9.80;;;;;;;22.36;73.92;99681.45;106298;1271;22540;-76
2022/08/16 03:54:08;;;;;;;10.10;9.00;;;;;;;22.36;74.00;99681.44;106159;1271;24418;-78
2022/08/16 03:56:39;;;;;;;10.60;9.50;;;;;;;22.37;73.78;99682.43;106185;1270;22532;-76
2022/08/16 03:59:26;;;;;;;10.50;9.60;;;;;;;22.39;73.80;99679.08;106402;1270;22703;-75
2022/08/16 04:01:58;;;;;;;10.70;9.70;;;;;;;22.41;73.64;99684.52;106430;1269;25461;-74
2022/08/16 04:04:28;;;;;;;11.50;9.50;;;;;;;22.43;73.45;99686.00;106373;1271;25346;-75
2022/08/16 04:07:02;;;;;;;10.50;9.40;;;;;;;22.42;73.14;99685.89;106395;1268;22667;-78
2022/08/16 04:09:34;;;;;;;10.30;9.20;;;;;;;22.41;73.21;99687.71;106334;1271;24451;-76
2022/08/16 04:12:05;;;;;;;11.20;10.10;;;;;;;22.42;73.11;99690.91;106175;1271;25405;-75
2022/08/16 04:14:38;;;;;;;11.60;10.30;;;;;;;22.43;73.32;99693.58;106289;1270;25242;-75
2022/08/16 04:17:14;;;;;;;13.60;10.20;;;;;;;22.42;73.30;99694.66;106335;1271;25347;-75
2022/08/16 04:19:46;;;;;;;10.50;9.50;;;;;;;22.40;73.45;99700.35;106293;1271;22524;-74
2022/08/16 04:22:18;;;;;;;10.90;9.90;;;;;;;22.37;73.43;99703.03;106402;1271;22544;-74
2022/08/16 04:24:53;;;;;;;10.20;9.30;;;;;;;22.34;73.56;99698.64;106342;1270;24275;-75
2022/08/16 04:27:26;;;;;;;13.10;10.20;;;;;;;22.34;73.71;99696.45;106269;1271;23138;-75
2022/08/16 04:29:58;;;;;;;10.70;9.70;;;;;;;22.35;73.73;99697.46;106349;1271;25341;-74
2022/08/16 04:32:31;;;;;;;11.20;10.20;;;;;;;22.36;73.53;99698.45;106196;1271;25343;-72
2022/08/16 04:34:59;;;;;;;11.80;9.80;;;;;;;22.36;73.50;99696.30;106314;1271;22536;-74
2022/08/16 04:37:35;;;;;;;11.30;10.10;;;;;;;22.37;73.61;99694.98;106197;1271;22559;-75
2022/08/16 04:40:37;;;;;;;13.00;10.00;;;;;;;22.35;73.32;99695.28;106103;1271;24382;-74
2022/08/16 04:43:05;;;;;;;11.10;9.50;;;;;;;22.33;73.18;99696.67;106347;1269;22537;-75
2022/08/16 04:45:32;;;;;;;11.70;9.20;;;;;;;22.33;73.07;99697.10;106263;1268;22602;-76
2022/08/16 04:48:09;;;;;;;10.80;9.40;;;;;;;22.35;73.17;99697.27;106224;1271;25180;-75
2022/08/16 04:50:45;;;;;;;10.50;9.50;;;;;;;22.36;73.26;99694.90;106260;1270;22550;-77
2022/08/16 04:53:15;;;;;;;12.30;9.90;;;;;;;22.35;73.25;99695.81;106408;1269;22525;-73
2022/08/16 04:55:45;;;;;;;12.70;9.70;;;;;;;22.35;73.07;99701.25;106328;1271;22550;-75
2022/08/16 04:58:19;;;;;;;9.90;8.90;;;;;;;22.31;73.10;99696.86;106386;1271;24419;-75
2022/08/16 05:01:07;;;;;;;10.80;9.90;;;;;;;22.33;73.09;99701.55;106328;1271;25347;-75
2022/08/16 05:03:34;;;;;;;12.30;11.00;;;;;;;22.34;73.18;99705.62;106374;1271;26604;-76
2022/08/16 05:06:08;;;;;;;11.00;9.70;;;;;;;22.37;72.98;99706.27;106342;1271;22528;-76
2022/08/16 05:08:37;;;;;;;11.50;9.20;;;;;;;22.37;73.10;99704.70;106313;1271;25310;-74
2022/08/16 05:11:17;;;;;;;10.30;9.40;;;;;;;22.39;73.32;99708.52;106318;1271;25462;-76
2022/08/16 05:13:46;;;;;;;11.50;10.30;;;;;;;22.43;73.20;99710.17;106365;1271;22553;-75
2022/08/16 05:16:26;;;;;;;11.20;9.90;;;;;;;22.51;73.28;99718.08;106504;1270;25398;-75
2022/08/16 05:19:07;;;;;;;12.90;10.20;;;;;;;22.57;73.12;99714.44;106279;1271;25372;-75
2022/08/16 05:21:39;;;;;;;16.00;9.80;;;;;;;22.62;72.75;99716.05;106217;1271;22528;-75
2022/08/16 05:24:07;;;;;;;11.10;10.00;;;;;;;22.67;73.00;99718.63;106248;1271;24500;-76
2022/08/16 05:26:38;;;;;;;11.10;10.10;;;;;;;22.73;72.82;99717.98;106289;1271;24847;-75
2022/08/16 05:29:10;;;;;;;13.00;9.80;;;;;;;22.79;72.69;99717.39;106563;1268;22515;-77
2022/08/16 05:31:52;;;;;;;11.40;9.60;;;;;;;22.87;72.53;99718.30;106399;1271;22538;-76
2022/08/16 05:34:20;;;;;;;10.90;9.70;;;;;;;22.92;72.43;99714.72;106483;1271;22528;-77
2022/08/16 05:36:51;;;;;;;11.40;10.30;;;;;;;23.01;72.22;99716.42;106391;1271;25287;-77
2022/08/16 05:39:20;;;;;;;11.10;10.00;;;;;;;23.05;72.04;99717.36;106458;1269;22612;-74
2022/08/16 05:41:49;;;;;;;11.20;9.90;;;;;;;23.10;71.98;99722.23;106231;1271;25660;-75
2022/08/16 05:44:22;;;;;;;10.10;9.30;;;;;;;23.16;71.99;99722.54;106346;1271;24777;-76
2022/08/16 05:46:58;;;;;;;14.30;9.60;;;;;;;23.22;71.90;99722.09;106088;1271;22525;-76
2022/08/16 05:49:29;;;;;;;10.80;9.80;;;;;;;23.29;71.54;99727.86;106309;1271;22613;-76
2022/08/16 05:52:11;;;;;;;11.90;10.00;;;;;;;23.35;71.31;99727.39;106374;1268;22539;-73
2022/08/16 05:54:42;;;;;;;10.50;9.50;;;;;;;23.40;71.04;99723.73;106292;1271;22544;-76
2022/08/16 05:57:18;;;;;;;14.40;9.80;;;;;;;23.43;71.05;99723.64;106231;1271;22533;-74
2022/08/16 05:59:47;;;;;;;11.20;9.70;;;;;;;23.42;70.93;99722.10;106136;1271;22531;-74
2022/08/16 06:02:29;;;;;;;11.70;9.20;;;;;;;23.43;70.93;99718.20;106273;1271;23922;-71
2022/08/16 06:05:00;;;;;;;11.30;9.50;;;;;;;23.45;70.76;99719.39;106324;1271;22547;-78
2022/08/16 06:07:28;;;;;;;10.90;9.70;;;;;;;23.44;70.48;99718.52;106305;1269;22598;-74
2022/08/16 06:10:07;;;;;;;10.80;9.20;;;;;;;23.45;70.57;99715.20;106378;1271;22562;-75
2022/08/16 06:12:37;;;;;;;14.30;9.30;;;;;;;23.47;70.59;99721.39;106388;1270;22684;-75
2022/08/16 06:15:10;;;;;;;12.00;9.30;;;;;;;23.50;70.49;99716.80;106306;1271;23001;-74
2022/08/16 06:17:43;;;;;;;11.80;8.90;;;;;;;23.53;70.16;99717.73;106267;1271;22756;-77
2022/08/16 06:20:20;;;;;;;11.00;9.20;;;;;;;23.53;69.92;99719.13;106347;1268;22525;-76
2022/08/16 06:22:55;;;;;;;14.20;9.20;;;;;;;23.53;69.83;99720.20;106354;1271;22721;-75
2022/08/16 06:25:34;;;;;;;14.70;9.50;;;;;;;23.53;69.61;99723.44;106262;1271;22581;-75
2022/08/16 06:28:10;;;;;;;13.20;9.60;;;;;;;23.50;69.77;99722.77;106369;1271;24371;-75
2022/08/16 06:30:57;;;;;;;11.20;8.80;;;;;;;23.52;69.93;99725.18;106357;1268;24212;-75
2022/08/16 06:33:28;;;;;;;12.20;9.80;;;;;;;23.53;69.72;99729.23;106103;1271;23950;-76
2022/08/16 06:36:08;;;;;;;13.20;9.60;;;;;;;23.54;69.70;99728.98;106298;1271;25358;-75
2022/08/16 06:38:36;;;;;;;14.00;9.50;;;;;;;23.58;69.50;99729.00;106143;1271;22547;-76
2022/08/16 06:41:27;;;;;;;11.30;9.20;;;;;;;23.65;69.24;99726.70;106204;1271;22544;-75
2022/08/16 06:44:07;;;;;;;15.40;8.80;;;;;;;23.72;69.04;99726.00;106353;1271;22539;-75
2022/08/16 06:46:47;;;;;;;11.90;9.70;;;;;;;23.82;68.88;99724.93;106380;1271;22474;-75
2022/08/16 06:49:16;;;;;;;10.40;9.50;;;;;;;23.85;68.73;99722.86;106249;1271;25478;-75
2022/08/16 06:51:44;;;;;;;11.60;9.80;;;;;;;23.91;68.56;99723.70;106325;1271;24353;-77
2022/08/16 06:54:17;;;;;;;13.30;9.50;;;;;;;23.97;68.23;99725.61;106427;1271;22545;-79
2022/08/16 06:56:44;;;;;;;11.30;10.10;;;;;;;24.00;68.08;99727.49;106477;1271;24352;-77
2022/08/16 06:59:13;;;;;;;15.40;10.30;;;;;;;24.04;68.06;99729.89;106507;1271;22473;-72
2022/08/16 07:01:48;;;;;;;13.20;9.00;;;;;;;24.10;67.88;99729.65;106395;1271;22521;-73
2022/08/16 07:04:21;;;;;;;10.10;9.10;;;;;;;24.16;68.01;99731.73;106534;1271;22624;-77
2022/08/16 07:07:07;;;;;;;13.30;9.50;;;;;;;24.22;68.06;99734.99;106570;1271;22707;-77
2022/08/16 07:09:36;;;;;;;11.90;9.40;;;;;;;24.29;67.75;99728.42;106487;1271;24298;-75
2022/08/16 07:12:03;;;;;;;10.10;8.90;;;;;;;24.39;67.51;99725.66;106440;1271;25290;-73
2022/08/16 07:14:33;;;;;;;10.10;8.50;;;;;;;24.50;67.27;99724.42;106391;1271;26154;-73
2022/08/16 07:17:02;;;;;;;10.70;9.50;;;;;;;24.61;67.26;99724.44;106459;1268;22753;-75
2022/08/16 07:19:39;;;;;;;14.10;9.50;;;;;;;24.71;66.84;99725.52;106534;1271;22541;-75
2022/08/16 07:22:31;;;;;;;13.70;9.50;;;;;;;24.83;66.53;99725.50;106486;1271;22679;-76
2022/08/16 07:25:13;;;;;;;9.90;8.80;;;;;;;24.92;66.50;99724.75;106416;1271;22562;-75
2022/08/16 07:27:43;;;;;;;11.50;9.60;;;;;;;25.05;66.13;99727.75;106475;1271;24288;-77
2022/08/16 07:30:16;;;;;;;10.60;9.20;;;;;;;25.08;65.40;99727.79;107208;1271;22550;-74
2022/08/16 07:33:05;;;;;;;11.50;8.30;;;;;;;25.16;65.15;99722.48;108051;1271;22476;-73
2022/08/16 07:35:35;;;;;;;9.70;8.70;;;;;;;25.22;65.28;99722.05;108524;1271;25350;-75
2022/08/16 07:38:05;;;;;;;9.30;8.30;;;;;;;25.30;64.68;99720.83;107718;1270;22474;-73
2022/08/16 07:40:44;;;;;;;12.60;9.40;;;;;;;25.24;64.28;99715.56;107175;1270;24832;-77
2022/08/16 07:43:32;;;;;;;9.90;8.10;;;;;;;25.21;64.54;99715.66;107527;1268;22640;-76
2022/08/16 07:46:02;;;;;;;14.00;8.80;;;;;;;25.21;64.87;99706.08;107642;1271;22602;-75
2022/08/16 07:48:32;;;;;;;13.90;9.20;;;;;;;25.33;64.58;99713.40;107088;1271;25359;-75
2022/08/16 07:50:59;;;;;;;14.60;9.50;;;;;;;25.37;64.18;99712.55;106488;1269;22525;-75
2022/08/16 07:53:34;;;;;;;10.10;9.10;;;;;;;25.37;63.56;99710.23;106518;1271;22525;-76
2022/08/16 07:56:11;;;;;;;10.50;8.70;;;;;;;25.42;63.72;99716.11;106507;1269;22718;-75
2022/08/16 07:58:41;;;;;;;11.10;8.60;;;;;;;25.48;63.64;99712.52;106164;1271;25473;-76
2022/08/16 08:01:12;;;;;;;13.10;8.60;;;;;;;25.58;63.83;99711.39;106352;1271;22566;-75
2022/08/16 08:03:53;;;;;;;9.80;8.80;;;;;;;25.68;63.57;99713.84;106288;1271;25215;-75
2022/08/16 08:06:31;;;;;;;13.70;8.10;;;;;;;25.77;63.27;99711.80;106498;1271;22573;-74
2022/08/16 08:09:03;;;;;;;11.50;9.00;;;;;;;25.86;63.28;99712.83;106379;1271;26497;-76
2022/08/16 08:11:31;;;;;;;9.30;8.40;;;;;;;25.94;63.42;99714.13;106300;1271;24204;-76
2022/08/16 08:14:01;;;;;;;12.30;8.50;;;;;;;26.03;63.46;99716.30;106358;1269;25248;-75
2022/08/16 08:16:33;;;;;;;11.80;8.50;;;;;;;26.10;63.33;99713.39;106281;1271;22540;-74
2022/08/16 08:19:02;;;;;;;12.00;9.10;;;;;;;26.22;62.94;99719.25;106284;1271;22567;-76
2022/08/16 08:21:33;;;;;;;14.30;8.10;;;;;;;26.31;62.30;99722.07;106372;1271;22583;-75
2022/08/16 08:24:28;;;;;;;10.50;8.20;;;;;;;26.43;61.86;99720.45;106370;1271;22535;-74
2022/08/16 08:27:01;;;;;;;9.20;8.30;;;;;;;26.55;61.89;99715.55;106231;1271;22524;-75
2022/08/16 08:29:31;;;;;;;10.30;8.60;;;;;;;26.71;61.78;99717.20;106273;1271;25355;-75
2022/08/16 08:32:07;;;;;;;10.80;8.20;;;;;;;26.86;61.84;99718.98;106270;1271;22614;-76
2022/08/16 08:34:58;;;;;;;9.70;8.00;;;;;;;26.98;61.31;99720.65;106287;1271;22550;-74
2022/08/16 08:37:31;;;;;;;12.20;8.70;;;;;;;27.09;61.41;99721.52;106241;1271;22557;-74
2022/08/16 08:40:19;;;;;;;11.90;8.50;;;;;;;27.22;60.69;99723.96;106264;1271;22859;-74
2022/08/16 08:42:57;;;;;;;14.30;7.70;;;;;;;27.34;60.21;99730.31;106380;1271;23947;-74
2022/08/16 08:45:40;;;;;;;10.50;7.80;;;;;;;27.53;59.74;99732.22;106352;1271;22645;-74
2022/08/16 08:48:20;;;;;;;8.40;7.40;;;;;;;27.71;59.10;99732.25;106297;1271;22685;-76
2022/08/16 08:51:03;;;;;;;9.10;7.30;;;;;;;27.81;58.80;99736.27;106274;1271;22608;-76
2022/08/16 08:53:32;;;;;;;12.30;7.90;;;;;;;27.91;58.55;99732.60;106283;1271;22643;-74
2022/08/16 08:56:02;;;;;;;9.60;7.70;;;;;;;27.99;58.03;99732.75;106199;1271;23906;-75
2022/08/16 08:58:49;;;;;;;13.90;7.70;;;;;;;28.00;57.65;99730.28;106286;1271;22538;-76
2022/08/16 09:01:36;;;;;;;12.60;8.00;;;;;;;28.09;57.44;99734.90;106287;1271;22534;-76
2022/08/16 09:04:23;;;;;;;11.90;7.70;;;;;;;28.20;57.23;99735.69;106215;1271;24225;-77
2022/08/16 09:06:52;;;;;;;12.60;7.90;;;;;;;28.25;56.85;99733.79;106386;1271;22535;-77
2022/08/16 09:09:23;;;;;;;11.10;7.50;;;;;;;28.39;56.87;99733.80;106398;1270;22551;-75
2022/08/16 09:11:55;;;;;;;10.60;7.30;;;;;;;28.51;56.35;99733.75;106235;1269;25410;-75
2022/08/16 09:14:56;;;;;;;10.70;7.80;;;;;;;28.58;56.18;99726.85;106336;1271;25363;-75
2022/08/16 09:17:26;;;;;;;14.20;7.50;;;;;;;28.70;55.69;99729.58;106263;1271;22695;-76
2022/08/16 09:20:14;;;;;;;14.70;8.50;;;;;;;28.83;55.08;99728.16;106047;1271;22531;-74
2022/08/16 09:22:43;;;;;;;11.20;7.80;;;;;;;28.90;55.25;99732.73;106161;1271;22525;-74
2022/08/16 09:25:19;;;;;;;12.10;7.40;;;;;;;28.99;55.03;99732.27;106253;1271;22469;-74
2022/08/16 09:27:52;;;;;;;14.10;9.60;;;;;;;29.16;55.02;99738.01;106061;1271;22525;-74
2022/08/16 09:30:30;;;;;;;10.90;9.30;;;;;;;29.38;55.04;99735.52;106065;1271;22528;-75
2022/08/16 09:33:01;;;;;;;11.50;8.10;;;;;;;29.48;54.81;99735.84;106276;1271;23922;-75
2022/08/16 09:35:32;;;;;;;10.30;7.00;;;;;;;29.52;54.29;99738.09;106516;1268;22538;-76
2022/08/16 09:38:03;;;;;;;12.00;6.60;;;;;;;29.57;53.76;99734.08;106388;1271;22563;-74
2022/08/16 09:40:33;;;;;;;10.20;7.10;;;;;;;29.62;53.63;99739.38;107536;1271;25210;-74
2022/08/16 09:43:10;;;;;;;10.80;7.20;;;;;;;29.54;53.40;99737.77;107547;1269;24000;-75
2022/08/16 09:45:57;;;;;;;7.10;6.40;;;;;;;29.47;53.17;99742.70;106306;1271;25582;-77
2022/08/16 09:48:27;;;;;;;11.90;7.00;;;;;;;29.40;53.31;99747.83;106325;1271;25411;-77
2022/08/16 09:51:12;;;;;;;10.60;6.80;;;;;;;29.23;53.27;99748.59;106112;1271;22547;-75
2022/08/16 09:53:40;;;;;;;9.20;7.70;;;;;;;29.12;53.42;99752.44;106410;1269;25440;-78
2022/08/16 09:56:29;;;;;;;9.80;6.80;;;;;;;29.04;53.66;99755.86;106438;1271;23174;-78
2022/08/16 09:58:59;;;;;;;11.80;6.90;;;;;;;28.94;53.63;99751.89;106320;1271;22524;-78
2022/08/16 10:01:38;;;;;;;11.20;7.30;;;;;;;28.85;53.93;99756.02;106354;1269;24220;-76
2022/08/16 10:04:11;;;;;;;8.70;6.60;;;;;;;28.76;53.67;99762.83;106272;1271;22519;-80
2022/08/16 10:06:58;;;;;;;8.30;7.40;;;;;;;28.68;53.85;99766.34;106270;1271;24220;-76
2022/08/16 10:09:30;;;;;;;9.10;7.40;;;;;;;28.61;54.03;99770.08;106336;1271;25303;-75
2022/08/16 10:15:09;;;;;;;8.30;7.20;;;;;;;28.60;55.06;99774.69;106466;1271;25419;-75
2022/08/16 10:17:46;;;;;;;8.20;7.30;;;;;;;28.61;55.11;99774.25;106452;1271;25302;-76
2022/08/16 10:20:33;;;;;;;9.80;7.70;;;;;;;28.64;55.04;99780.25;106373;1271;23339;-76
2022/08/16 10:23:03;;;;;;;10.40;7.20;;;;;;;28.70;55.04;99784.06;106340;1271;24298;-75
2022/08/16 10:25:39;;;;;;;12.80;7.60;;;;;;;28.71;54.64;99780.77;106223;1271;22681;-74
2022/08/16 10:28:28;;;;;;;8.70;7.10;;;;;;;28.74;54.64;99782.64;106266;1271;22735;-75
2022/08/16 10:31:02;;;;;;;9.30;6.90;;;;;;;28.75;54.67;99781.98;106398;1270;22544;-75
2022/08/16 10:33:32;;;;;;;9.80;7.30;;;;;;;28.72;54.46;99783.20;106366;1271;22697;-75
2022/08/16 10:36:04;;;;;;;12.20;8.30;;;;;;;28.72;54.52;99792.27;106297;1271;22522;-78
2022/08/16 10:38:35;;;;;;;9.20;7.10;;;;;;;28.71;54.77;99794.68;106328;1271;25363;-79
2022/08/16 10:41:05;;;;;;;9.90;7.10;;;;;;;28.70;54.68;99788.45;106370;1270;22552;-77
2022/08/16 10:43:35;;;;;;;10.40;7.30;;;;;;;28.69;54.91;99786.96;106309;1271;24288;-75
2022/08/16 10:46:04;;;;;;;11.90;7.10;;;;;;;28.70;54.94;99791.84;106432;1271;24428;-76
2022/08/16 10:48:51;;;;;;;8.10;7.20;;;;;;;28.73;55.24;99793.27;106420;1271;22540;-76
2022/08/16 10:51:18;;;;;;;8.00;7.20;;;;;;;28.70;54.85;99798.09;106331;1268;23142;-77
2022/08/16 10:53:44;;;;;;;9.40;7.40;;;;;;;28.66;54.71;99799.33;106356;1269;22767;-78
2022/08/16 10:56:11;;;;;;;11.30;6.90;;;;;;;28.64;54.96;99801.71;106296;1271;22691;-77
2022/08/16 10:58:58;;;;;;;10.50;7.10;;;;;;;28.67;54.49;99807.75;106307;1271;24221;-76
2022/08/16 11:01:45;;;;;;;11.30;7.30;;;;;;;28.70;54.78;99808.58;106236;1271;22535;-78
2022/08/16 11:04:32;;;;;;;9.50;7.70;;;;;;;28.73;54.76;99808.63;106206;1271;25376;-75
2022/08/16 11:07:19;;;;;;;8.40;7.00;;;;;;;28.77;54.26;99807.36;106379;1271;22855;-77
2022/08/16 11:10:08;;;;;;;12.90;6.30;;;;;;;28.79;53.33;99810.38;106382;1271;24417;-81
2022/08/16 11:12:55;;;;;;;9.40;6.60;;;;;;;28.78;53.42;99810.67;105219;1269;1475816;-72
2022/08/16 11:15:22;;;;;;;11.90;6.30;;;;;;;28.86;53.22;99806.70;106236;1271;22547;-75
2022/08/16 11:17:53;;;;;;;7.90;6.10;;;;;;;28.98;52.97;99814.07;106352;1271;22687;-73
2022/08/16 11:20:42;;;;;;;11.80;6.40;;;;;;;29.02;52.63;99816.27;106356;1271;22718;-76
2022/08/16 11:23:15;;;;;;;6.90;6.20;;;;;;;29.12;52.61;99815.50;106424;1271;24583;-76
2022/08/16 11:25:42;;;;;;;7.80;6.20;;;;;;;29.18;52.54;99815.23;106235;1271;22693;-77
2022/08/16 11:28:31;;;;;;;7.20;6.50;;;;;;;29.23;52.98;99812.02;106375;1270;22688;-75
2022/08/16 11:31:18;;;;;;;7.40;6.70;;;;;;;29.24;53.13;99813.60;106485;1271;24088;-74
2022/08/16 11:33:47;;;;;;;7.80;6.70;;;;;;;29.23;53.33;99817.35;106504;1271;22532;-77
2022/08/16 11:36:22;;;;;;;9.90;7.90;;;;;;;29.13;53.70;99822.26;106171;1271;25245;-76
2022/08/16 11:38:58;;;;;;;8.40;7.30;;;;;;;29.06;53.85;99819.63;106418;1271;22600;-80
2022/08/16 11:41:26;;;;;;;8.90;7.60;;;;;;;28.98;54.04;99821.33;106400;1269;23917;-80
2022/08/16 11:43:58;;;;;;;10.80;7.20;;;;;;;28.88;54.05;99824.80;106494;1271;25299;-79
2022/08/16 11:46:25;;;;;;;9.00;7.30;;;;;;;28.83;54.47;99830.70;106303;1271;24356;-75
2022/08/16 11:49:12;;;;;;;10.10;7.40;;;;;;;28.74;54.47;99828.61;106328;1271;22711;-80
2022/08/16 11:51:43;;;;;;;9.20;8.30;;;;;;;28.67;54.44;99827.69;106439;1271;22681;-76
2022/08/16 11:54:13;;;;;;;8.60;7.40;;;;;;;28.62;54.53;99823.59;106324;1271;24769;-77
2022/08/16 11:56:49;;;;;;;8.00;7.00;;;;;;;28.65;54.35;99820.23;106569;1271;25386;-76
2022/08/16 11:59:23;;;;;;;;;;;;;;;28.67;54.39;99818.96;106263;1271;22523;-76